Time;durP1;ratioP1;P1;durP2;ratioP2;P2;SDS_P1;SDS_P2;PMS_P1;PMS_P2;Temp;Humidity;BMP_temperature;BMP_pressure;BME280_temperature;BME280_humidity;BME280_pressure;Samples;Min_cycle;Max_cycle;Signal;HPM_P1;HPM_P2
2022/05/26 00:00:00;;;;;;;0.4;0.4;;;;;;;16.0;100.0;101450;;;;
2022/05/26 00:01:04;;;;;;;0.4;0.4;;;;;;;16.0;100.0;101450;;;;
2022/05/26 00:02:00;;;;;;;0.4;0.4;;;;;;;16.2;100.0;101440;;;;
2022/05/26 00:03:00;;;;;;;0.4;0.4;;;;;;;16.2;100.0;101440;;;;
2022/05/26 00:04:00;;;;;;;0.4;0.4;;;;;;;16.0;100.0;101440;;;;
2022/05/26 00:05:00;;;;;;;0.4;0.4;;;;;;;16.0;100.0;101440;;;;
2022/05/26 00:06:00;;;;;;;0.4;0.4;;;;;;;15.9;100.0;101450;;;;
2022/05/26 00:07:00;;;;;;;0.4;0.4;;;;;;;15.9;100.0;101450;;;;
2022/05/26 00:08:00;;;;;;;0.4;0.4;;;;;;;15.9;100.0;101440;;;;
2022/05/26 00:09:00;;;;;;;0.4;0.4;;;;;;;15.9;100.0;101440;;;;
2022/05/26 00:10:00;;;;;;;0.4;0.4;;;;;;;15.9;100.0;101450;;;;
2022/05/26 00:11:00;;;;;;;0.4;0.4;;;;;;;15.9;100.0;101450;;;;
2022/05/26 00:12:00;;;;;;;0.4;0.4;;;;;;;15.9;100.0;101440;;;;
2022/05/26 00:13:00;;;;;;;0.4;0.4;;;;;;;15.9;100.0;101440;;;;
2022/05/26 00:14:07;;;;;;;0.4;0.4;;;;;;;16.0;100.0;101440;;;;
2022/05/26 00:15:00;;;;;;;0.4;0.4;;;;;;;16.0;100.0;101440;;;;
2022/05/26 00:16:00;;;;;;;0.4;0.4;;;;;;;16.0;100.0;101440;;;;
2022/05/26 00:17:00;;;;;;;0.4;0.4;;;;;;;16.0;100.0;101440;;;;
2022/05/26 00:18:00;;;;;;;0.4;0.4;;;;;;;15.9;100.0;101440;;;;
2022/05/26 00:19:00;;;;;;;0.6;0.6;;;;;;;15.9;100.0;101440;;;;
2022/05/26 00:20:00;;;;;;;0.6;0.6;;;;;;;15.8;100.0;101440;;;;
2022/05/26 00:21:00;;;;;;;0.6;0.6;;;;;;;15.8;100.0;101440;;;;
2022/05/26 00:22:00;;;;;;;0.6;0.6;;;;;;;15.8;100.0;101450;;;;
2022/05/26 00:23:00;;;;;;;0.6;0.6;;;;;;;15.8;100.0;101450;;;;
2022/05/26 00:24:00;;;;;;;0.6;0.6;;;;;;;15.9;100.0;101450;;;;
2022/05/26 00:25:00;;;;;;;0.6;0.6;;;;;;;15.9;100.0;101450;;;;
2022/05/26 00:26:00;;;;;;;0.6;0.6;;;;;;;15.9;100.0;101450;;;;
2022/05/26 00:27:00;;;;;;;0.6;0.6;;;;;;;15.9;100.0;101450;;;;
2022/05/26 00:28:00;;;;;;;0.6;0.6;;;;;;;15.9;100.0;101450;;;;
2022/05/26 00:29:00;;;;;;;0.6;0.6;;;;;;;15.9;100.0;101450;;;;
2022/05/26 00:30:00;;;;;;;0.6;0.6;;;;;;;15.9;100.0;101450;;;;
2022/05/26 00:31:00;;;;;;;0.6;0.6;;;;;;;15.9;100.0;101450;;;;
2022/05/26 00:32:00;;;;;;;0.6;0.6;;;;;;;15.9;100.0;101450;;;;
2022/05/26 00:33:00;;;;;;;0.6;0.6;;;;;;;15.9;100.0;101450;;;;
2022/05/26 00:34:00;;;;;;;0.6;0.6;;;;;;;16.0;100.0;101450;;;;
2022/05/26 00:35:00;;;;;;;0.6;0.6;;;;;;;16.0;100.0;101450;;;;
2022/05/26 00:36:02;;;;;;;0.6;0.6;;;;;;;15.9;100.0;101460;;;;
2022/05/26 00:37:00;;;;;;;0.6;0.6;;;;;;;15.9;100.0;101460;;;;
2022/05/26 00:38:02;;;;;;;0.6;0.6;;;;;;;16.0;100.0;101460;;;;
2022/05/26 00:39:00;;;;;;;0.8;0.8;;;;;;;16.0;100.0;101460;;;;
2022/05/26 00:40:01;;;;;;;0.8;0.8;;;;;;;16.1;100.0;101460;;;;
2022/05/26 00:41:01;;;;;;;0.8;0.8;;;;;;;16.1;100.0;101460;;;;
2022/05/26 00:42:01;;;;;;;0.8;0.8;;;;;;;16.0;100.0;101460;;;;
2022/05/26 00:43:00;;;;;;;0.8;0.8;;;;;;;16.0;100.0;101460;;;;
2022/05/26 00:44:00;;;;;;;0.8;0.8;;;;;;;16.0;100.0;101450;;;;
2022/05/26 00:45:00;;;;;;;0.8;0.8;;;;;;;16.0;100.0;101450;;;;
2022/05/26 00:46:04;;;;;;;0.8;0.8;;;;;;;15.8;100.0;101450;;;;
2022/05/26 00:47:10;;;;;;;0.8;0.8;;;;;;;15.8;100.0;101450;;;;
2022/05/26 00:48:00;;;;;;;0.8;0.8;;;;;;;15.9;100.0;101450;;;;
2022/05/26 00:49:01;;;;;;;0.8;0.8;;;;;;;15.9;100.0;101450;;;;
2022/05/26 00:50:10;;;;;;;0.8;0.8;;;;;;;16.0;100.0;101450;;;;
2022/05/26 00:51:01;;;;;;;0.8;0.8;;;;;;;16.0;100.0;101450;;;;
2022/05/26 00:52:01;;;;;;;0.8;0.8;;;;;;;15.9;100.0;101450;;;;
2022/05/26 00:53:10;;;;;;;0.8;0.8;;;;;;;15.9;100.0;101450;;;;
2022/05/26 00:54:03;;;;;;;0.8;0.8;;;;;;;15.9;100.0;101450;;;;
2022/05/26 00:55:02;;;;;;;0.8;0.8;;;;;;;15.9;100.0;101450;;;;
2022/05/26 00:56:07;;;;;;;0.8;0.8;;;;;;;15.9;100.0;101460;;;;
2022/05/26 00:57:03;;;;;;;0.8;0.8;;;;;;;15.9;100.0;101460;;;;
2022/05/26 00:58:07;;;;;;;0.8;0.8;;;;;;;16.0;100.0;101450;;;;
2022/05/26 00:59:04;;;;;;;0.5;0.5;;;;;;;16.0;100.0;101450;;;;
2022/05/26 01:00:02;;;;;;;0.5;0.5;;;;;;;16.1;100.0;101450;;;;
2022/05/26 01:01:01;;;;;;;0.5;0.5;;;;;;;16.1;100.0;101450;;;;
2022/05/26 01:02:00;;;;;;;0.5;0.5;;;;;;;16.1;100.0;101450;;;;
2022/05/26 01:03:08;;;;;;;0.5;0.5;;;;;;;16.1;100.0;101450;;;;
2022/05/26 01:04:05;;;;;;;0.5;0.5;;;;;;;16.0;100.0;101450;;;;
2022/05/26 01:05:03;;;;;;;0.5;0.5;;;;;;;16.0;100.0;101450;;;;
2022/05/26 01:06:00;;;;;;;0.5;0.5;;;;;;;16.0;100.0;101450;;;;
2022/05/26 01:07:06;;;;;;;0.5;0.5;;;;;;;16.0;100.0;101450;;;;
2022/05/26 01:08:00;;;;;;;0.5;0.5;;;;;;;15.9;100.0;101450;;;;
2022/05/26 01:09:03;;;;;;;0.5;0.5;;;;;;;15.9;100.0;101450;;;;
2022/05/26 01:10:00;;;;;;;0.5;0.5;;;;;;;16.0;100.0;101450;;;;
2022/05/26 01:11:00;;;;;;;0.5;0.5;;;;;;;16.0;100.0;101450;;;;
2022/05/26 01:12:00;;;;;;;0.5;0.5;;;;;;;15.9;100.0;101450;;;;
2022/05/26 01:13:00;;;;;;;0.5;0.5;;;;;;;15.9;100.0;101450;;;;
2022/05/26 01:14:01;;;;;;;0.5;0.5;;;;;;;15.9;100.0;101460;;;;
2022/05/26 01:15:04;;;;;;;0.5;0.5;;;;;;;15.9;100.0;101460;;;;
2022/05/26 01:16:09;;;;;;;0.5;0.5;;;;;;;15.9;100.0;101460;;;;
2022/05/26 01:17:09;;;;;;;0.5;0.5;;;;;;;15.9;100.0;101460;;;;
2022/05/26 01:18:09;;;;;;;0.5;0.5;;;;;;;15.9;100.0;101460;;;;
2022/05/26 01:19:00;;;;;;;0.6;0.6;;;;;;;15.9;100.0;101460;;;;
2022/05/26 01:20:10;;;;;;;0.6;0.6;;;;;;;16.0;100.0;101460;;;;
2022/05/26 01:21:06;;;;;;;0.6;0.6;;;;;;;16.0;100.0;101460;;;;
2022/05/26 01:22:06;;;;;;;0.6;0.6;;;;;;;16.0;100.0;101460;;;;
2022/05/26 01:23:03;;;;;;;0.6;0.6;;;;;;;16.0;100.0;101460;;;;
2022/05/26 01:24:10;;;;;;;0.6;0.6;;;;;;;16.0;100.0;101460;;;;
2022/05/26 01:25:10;;;;;;;0.6;0.6;;;;;;;16.0;100.0;101460;;;;
2022/05/26 01:26:10;;;;;;;0.6;0.6;;;;;;;16.0;100.0;101460;;;;
2022/05/26 01:27:10;;;;;;;0.6;0.6;;;;;;;16.0;100.0;101460;;;;
2022/05/26 01:28:10;;;;;;;0.6;0.6;;;;;;;15.9;100.0;101460;;;;
2022/05/26 01:29:10;;;;;;;0.6;0.6;;;;;;;15.9;100.0;101460;;;;
2022/05/26 01:30:04;;;;;;;0.6;0.6;;;;;;;16.0;100.0;101470;;;;
2022/05/26 01:31:10;;;;;;;0.6;0.6;;;;;;;16.0;100.0;101470;;;;
2022/05/26 01:32:10;;;;;;;0.6;0.6;;;;;;;16.0;100.0;101470;;;;
2022/05/26 01:33:10;;;;;;;0.6;0.6;;;;;;;16.0;100.0;101470;;;;
2022/05/26 01:34:10;;;;;;;0.6;0.6;;;;;;;15.9;100.0;101470;;;;
2022/05/26 01:35:10;;;;;;;0.6;0.6;;;;;;;15.9;100.0;101470;;;;
2022/05/26 01:36:00;;;;;;;0.6;0.6;;;;;;;16.0;100.0;101470;;;;
2022/05/26 01:37:03;;;;;;;0.6;0.6;;;;;;;16.0;100.0;101470;;;;
2022/05/26 01:38:00;;;;;;;0.6;0.6;;;;;;;15.9;100.0;101470;;;;
2022/05/26 01:39:05;;;;;;;0.3;0.3;;;;;;;15.9;100.0;101470;;;;
2022/05/26 01:40:03;;;;;;;0.3;0.3;;;;;;;15.8;100.0;101470;;;;
2022/05/26 01:41:01;;;;;;;0.3;0.3;;;;;;;15.8;100.0;101470;;;;
2022/05/26 01:42:00;;;;;;;0.3;0.3;;;;;;;15.8;100.0;101470;;;;
2022/05/26 01:43:07;;;;;;;0.3;0.3;;;;;;;15.8;100.0;101470;;;;
2022/05/26 01:44:00;;;;;;;0.3;0.3;;;;;;;16.0;100.0;101470;;;;
2022/05/26 01:45:03;;;;;;;0.3;0.3;;;;;;;16.0;100.0;101470;;;;
2022/05/26 01:46:10;;;;;;;0.3;0.3;;;;;;;16.0;100.0;101470;;;;
2022/05/26 01:47:04;;;;;;;0.3;0.3;;;;;;;16.0;100.0;101470;;;;
2022/05/26 01:48:00;;;;;;;0.3;0.3;;;;;;;16.0;100.0;101480;;;;
2022/05/26 01:49:10;;;;;;;0.3;0.3;;;;;;;16.0;100.0;101480;;;;
2022/05/26 01:50:03;;;;;;;0.3;0.3;;;;;;;16.0;100.0;101480;;;;
2022/05/26 01:51:02;;;;;;;0.3;0.3;;;;;;;16.0;100.0;101480;;;;
2022/05/26 01:52:10;;;;;;;0.3;0.3;;;;;;;15.9;100.0;101480;;;;
2022/05/26 01:53:01;;;;;;;0.3;0.3;;;;;;;15.9;100.0;101480;;;;
2022/05/26 01:54:00;;;;;;;0.3;0.3;;;;;;;15.8;100.0;101480;;;;
2022/05/26 01:55:05;;;;;;;0.3;0.3;;;;;;;15.8;100.0;101480;;;;
2022/05/26 01:56:10;;;;;;;0.3;0.3;;;;;;;15.8;100.0;101480;;;;
2022/05/26 01:57:01;;;;;;;0.3;0.3;;;;;;;15.8;100.0;101480;;;;
2022/05/26 01:58:10;;;;;;;0.3;0.3;;;;;;;15.9;100.0;101490;;;;
2022/05/26 01:59:10;;;;;;;0.3;0.3;;;;;;;15.9;100.0;101490;;;;
2022/05/26 02:00:06;;;;;;;0.3;0.3;;;;;;;16.0;100.0;101490;;;;
2022/05/26 02:01:02;;;;;;;0.3;0.3;;;;;;;16.0;100.0;101490;;;;
2022/05/26 02:02:04;;;;;;;0.3;0.3;;;;;;;16.0;100.0;101490;;;;
2022/05/26 02:03:03;;;;;;;0.3;0.3;;;;;;;16.0;100.0;101490;;;;
2022/05/26 02:04:02;;;;;;;0.3;0.3;;;;;;;15.9;100.0;101500;;;;
2022/05/26 02:05:04;;;;;;;0.3;0.3;;;;;;;15.9;100.0;101500;;;;
2022/05/26 02:06:10;;;;;;;0.3;0.3;;;;;;;15.9;100.0;101490;;;;
2022/05/26 02:07:05;;;;;;;0.3;0.3;;;;;;;15.9;100.0;101490;;;;
2022/05/26 02:08:00;;;;;;;0.3;0.3;;;;;;;15.9;100.0;101490;;;;
2022/05/26 02:09:05;;;;;;;0.3;0.3;;;;;;;15.9;100.0;101490;;;;
2022/05/26 02:10:03;;;;;;;0.3;0.3;;;;;;;15.8;100.0;101490;;;;
2022/05/26 02:11:06;;;;;;;0.3;0.3;;;;;;;15.8;100.0;101490;;;;
2022/05/26 02:12:03;;;;;;;0.3;0.3;;;;;;;15.9;100.0;101500;;;;
2022/05/26 02:13:03;;;;;;;0.3;0.3;;;;;;;15.9;100.0;101500;;;;
2022/05/26 02:14:05;;;;;;;0.3;0.3;;;;;;;15.8;100.0;101490;;;;
2022/05/26 02:15:09;;;;;;;0.3;0.3;;;;;;;15.8;100.0;101490;;;;
2022/05/26 02:16:10;;;;;;;0.3;0.3;;;;;;;15.9;100.0;101500;;;;
2022/05/26 02:17:04;;;;;;;0.3;0.3;;;;;;;15.9;100.0;101500;;;;
2022/05/26 02:18:05;;;;;;;0.3;0.3;;;;;;;15.9;100.0;101500;;;;
2022/05/26 02:19:06;;;;;;;0.5;0.5;;;;;;;15.9;100.0;101500;;;;
2022/05/26 02:20:05;;;;;;;0.5;0.5;;;;;;;15.9;100.0;101490;;;;
2022/05/26 02:21:05;;;;;;;0.5;0.5;;;;;;;15.9;100.0;101490;;;;
2022/05/26 02:22:05;;;;;;;0.5;0.5;;;;;;;15.9;100.0;101500;;;;
2022/05/26 02:23:08;;;;;;;0.5;0.5;;;;;;;15.9;100.0;101500;;;;
2022/05/26 02:24:04;;;;;;;0.5;0.5;;;;;;;15.9;100.0;101500;;;;
2022/05/26 02:25:06;;;;;;;0.5;0.5;;;;;;;15.9;100.0;101500;;;;
2022/05/26 02:26:01;;;;;;;0.5;0.5;;;;;;;15.9;100.0;101500;;;;
2022/05/26 02:27:00;;;;;;;0.5;0.5;;;;;;;15.9;100.0;101500;;;;
2022/05/26 02:28:00;;;;;;;0.5;0.5;;;;;;;15.9;100.0;101500;;;;
2022/05/26 02:30:01;;;;;;;0.5;0.5;;;;;;;15.9;100.0;101510;;;;
2022/05/26 02:31:00;;;;;;;0.5;0.5;;;;;;;15.9;100.0;101510;;;;
2022/05/26 02:32:03;;;;;;;0.5;0.5;;;;;;;15.8;100.0;101510;;;;
2022/05/26 02:33:01;;;;;;;0.5;0.5;;;;;;;15.8;100.0;101510;;;;
2022/05/26 02:34:01;;;;;;;0.5;0.5;;;;;;;15.8;100.0;101510;;;;
2022/05/26 02:35:01;;;;;;;0.5;0.5;;;;;;;15.8;100.0;101510;;;;
2022/05/26 02:36:00;;;;;;;0.5;0.5;;;;;;;15.8;100.0;101510;;;;
2022/05/26 02:37:00;;;;;;;0.5;0.5;;;;;;;15.8;100.0;101510;;;;
2022/05/26 02:38:03;;;;;;;0.5;0.5;;;;;;;15.7;100.0;101520;;;;
2022/05/26 02:39:00;;;;;;;0.4;0.4;;;;;;;15.7;100.0;101520;;;;
2022/05/26 02:40:00;;;;;;;0.4;0.4;;;;;;;15.9;100.0;101510;;;;
2022/05/26 02:41:01;;;;;;;0.4;0.4;;;;;;;15.9;100.0;101510;;;;
2022/05/26 02:42:00;;;;;;;0.4;0.4;;;;;;;15.9;100.0;101520;;;;
2022/05/26 02:43:05;;;;;;;0.4;0.4;;;;;;;15.9;100.0;101520;;;;
2022/05/26 02:44:00;;;;;;;0.4;0.4;;;;;;;15.9;100.0;101510;;;;
2022/05/26 02:45:00;;;;;;;0.4;0.4;;;;;;;15.9;100.0;101510;;;;
2022/05/26 02:46:01;;;;;;;0.4;0.4;;;;;;;15.8;100.0;101510;;;;
2022/05/26 02:47:08;;;;;;;0.4;0.4;;;;;;;15.8;100.0;101510;;;;
2022/05/26 02:48:01;;;;;;;0.4;0.4;;;;;;;15.8;100.0;101510;;;;
2022/05/26 02:49:10;;;;;;;0.4;0.4;;;;;;;15.8;100.0;101510;;;;
2022/05/26 02:50:10;;;;;;;0.4;0.4;;;;;;;15.8;100.0;101520;;;;
2022/05/26 02:51:00;;;;;;;0.4;0.4;;;;;;;15.8;100.0;101520;;;;
2022/05/26 02:52:04;;;;;;;0.4;0.4;;;;;;;15.9;100.0;101520;;;;
2022/05/26 02:53:03;;;;;;;0.4;0.4;;;;;;;15.9;100.0;101520;;;;
2022/05/26 02:54:08;;;;;;;0.4;0.4;;;;;;;15.8;100.0;101520;;;;
2022/05/26 02:55:08;;;;;;;0.4;0.4;;;;;;;15.8;100.0;101520;;;;
2022/05/26 02:56:07;;;;;;;0.4;0.4;;;;;;;15.7;100.0;101520;;;;
2022/05/26 02:57:10;;;;;;;0.4;0.4;;;;;;;15.7;100.0;101520;;;;
2022/05/26 02:58:06;;;;;;;0.4;0.4;;;;;;;15.8;100.0;101520;;;;
2022/05/26 02:59:01;;;;;;;1.4;1.1;;;;;;;15.8;100.0;101520;;;;
2022/05/26 03:00:01;;;;;;;1.4;1.1;;;;;;;15.8;100.0;101520;;;;
2022/05/26 03:01:00;;;;;;;1.4;1.1;;;;;;;15.8;100.0;101520;;;;
2022/05/26 03:02:04;;;;;;;1.4;1.1;;;;;;;15.7;100.0;101520;;;;
2022/05/26 03:03:03;;;;;;;1.4;1.1;;;;;;;15.7;100.0;101520;;;;
2022/05/26 03:04:04;;;;;;;1.4;1.1;;;;;;;15.7;100.0;101520;;;;
2022/05/26 03:05:10;;;;;;;1.4;1.1;;;;;;;15.7;100.0;101520;;;;
2022/05/26 03:06:04;;;;;;;1.4;1.1;;;;;;;15.8;100.0;101520;;;;
2022/05/26 03:07:02;;;;;;;1.4;1.1;;;;;;;15.8;100.0;101520;;;;
2022/05/26 03:08:01;;;;;;;1.4;1.1;;;;;;;15.8;100.0;101530;;;;
2022/05/26 03:09:00;;;;;;;1.4;1.1;;;;;;;15.8;100.0;101530;;;;
2022/05/26 03:10:01;;;;;;;1.4;1.1;;;;;;;15.9;100.0;101530;;;;
2022/05/26 03:11:04;;;;;;;1.4;1.1;;;;;;;15.9;100.0;101530;;;;
2022/05/26 03:12:00;;;;;;;1.4;1.1;;;;;;;15.9;100.0;101520;;;;
2022/05/26 03:13:01;;;;;;;1.4;1.1;;;;;;;15.9;100.0;101520;;;;
2022/05/26 03:14:00;;;;;;;1.4;1.1;;;;;;;15.8;100.0;101530;;;;
2022/05/26 03:15:00;;;;;;;1.4;1.1;;;;;;;15.8;100.0;101530;;;;
2022/05/26 03:16:00;;;;;;;1.4;1.1;;;;;;;15.6;100.0;101520;;;;
2022/05/26 03:17:00;;;;;;;1.4;1.1;;;;;;;15.6;100.0;101520;;;;
2022/05/26 03:18:01;;;;;;;1.4;1.1;;;;;;;15.6;100.0;101530;;;;
2022/05/26 03:19:00;;;;;;;0.3;0.3;;;;;;;15.6;100.0;101530;;;;
2022/05/26 03:20:00;;;;;;;0.3;0.3;;;;;;;15.7;100.0;101530;;;;
2022/05/26 03:21:01;;;;;;;0.3;0.3;;;;;;;15.7;100.0;101530;;;;
2022/05/26 03:22:00;;;;;;;0.3;0.3;;;;;;;15.7;100.0;101530;;;;
2022/05/26 03:23:00;;;;;;;0.3;0.3;;;;;;;15.7;100.0;101530;;;;
2022/05/26 03:24:00;;;;;;;0.3;0.3;;;;;;;15.7;100.0;101520;;;;
2022/05/26 03:25:00;;;;;;;0.3;0.3;;;;;;;15.7;100.0;101520;;;;
2022/05/26 03:26:00;;;;;;;0.3;0.3;;;;;;;15.8;100.0;101530;;;;
2022/05/26 03:27:00;;;;;;;0.3;0.3;;;;;;;15.8;100.0;101530;;;;
2022/05/26 03:28:00;;;;;;;0.3;0.3;;;;;;;15.6;100.0;101540;;;;
2022/05/26 03:29:00;;;;;;;0.3;0.3;;;;;;;15.6;100.0;101540;;;;
2022/05/26 03:30:00;;;;;;;0.3;0.3;;;;;;;15.7;100.0;101540;;;;
2022/05/26 03:31:00;;;;;;;0.3;0.3;;;;;;;15.7;100.0;101540;;;;
2022/05/26 03:32:00;;;;;;;0.3;0.3;;;;;;;15.8;100.0;101540;;;;
2022/05/26 03:33:00;;;;;;;0.3;0.3;;;;;;;15.8;100.0;101540;;;;
2022/05/26 03:41:00;;;;;;;0.7;0.7;;;;;;;15.8;100.0;101540;;;;
2022/05/26 03:42:00;;;;;;;0.7;0.7;;;;;;;15.8;100.0;101540;;;;
2022/05/26 03:43:00;;;;;;;0.7;0.7;;;;;;;15.8;100.0;101540;;;;
2022/05/26 03:44:00;;;;;;;0.7;0.7;;;;;;;15.6;100.0;101550;;;;
2022/05/26 03:45:02;;;;;;;0.7;0.7;;;;;;;15.6;100.0;101550;;;;
2022/05/26 03:46:00;;;;;;;0.7;0.7;;;;;;;15.5;100.0;101550;;;;
2022/05/26 03:47:00;;;;;;;0.7;0.7;;;;;;;15.5;100.0;101550;;;;
2022/05/26 03:48:01;;;;;;;0.7;0.7;;;;;;;15.5;100.0;101550;;;;
2022/05/26 03:49:00;;;;;;;0.7;0.7;;;;;;;15.5;100.0;101550;;;;
2022/05/26 03:50:00;;;;;;;0.7;0.7;;;;;;;15.4;100.0;101550;;;;
2022/05/26 03:51:00;;;;;;;0.7;0.7;;;;;;;15.4;100.0;101550;;;;
2022/05/26 03:52:00;;;;;;;0.7;0.7;;;;;;;15.5;100.0;101550;;;;
2022/05/26 03:53:00;;;;;;;0.7;0.7;;;;;;;15.5;100.0;101550;;;;
2022/05/26 03:54:00;;;;;;;0.7;0.7;;;;;;;15.5;100.0;101560;;;;
2022/05/26 03:55:00;;;;;;;0.7;0.7;;;;;;;15.5;100.0;101560;;;;
2022/05/26 03:56:00;;;;;;;0.7;0.7;;;;;;;15.5;100.0;101560;;;;
2022/05/26 03:57:00;;;;;;;0.7;0.7;;;;;;;15.5;100.0;101560;;;;
2022/05/26 03:58:01;;;;;;;0.7;0.7;;;;;;;15.4;100.0;101560;;;;
2022/05/26 03:59:00;;;;;;;1.0;1.0;;;;;;;15.4;100.0;101560;;;;
2022/05/26 04:00:00;;;;;;;1.0;1.0;;;;;;;15.6;100.0;101560;;;;
2022/05/26 04:01:01;;;;;;;1.0;1.0;;;;;;;15.6;100.0;101560;;;;
2022/05/26 04:02:00;;;;;;;1.0;1.0;;;;;;;15.6;100.0;101560;;;;
2022/05/26 04:03:00;;;;;;;1.0;1.0;;;;;;;15.6;100.0;101560;;;;
2022/05/26 04:04:00;;;;;;;1.0;1.0;;;;;;;15.5;100.0;101570;;;;
2022/05/26 04:05:00;;;;;;;1.0;1.0;;;;;;;15.5;100.0;101570;;;;
2022/05/26 04:06:00;;;;;;;1.0;1.0;;;;;;;15.4;100.0;101570;;;;
2022/05/26 04:07:00;;;;;;;1.0;1.0;;;;;;;15.4;100.0;101570;;;;
2022/05/26 04:08:00;;;;;;;1.0;1.0;;;;;;;15.5;100.0;101580;;;;
2022/05/26 04:09:00;;;;;;;1.0;1.0;;;;;;;15.5;100.0;101580;;;;
2022/05/26 04:10:00;;;;;;;1.0;1.0;;;;;;;15.6;100.0;101570;;;;
2022/05/26 04:11:00;;;;;;;1.0;1.0;;;;;;;15.6;100.0;101570;;;;
2022/05/26 04:12:00;;;;;;;1.0;1.0;;;;;;;15.6;100.0;101580;;;;
2022/05/26 04:13:00;;;;;;;1.0;1.0;;;;;;;15.6;100.0;101580;;;;
2022/05/26 04:14:00;;;;;;;1.0;1.0;;;;;;;15.5;100.0;101580;;;;
2022/05/26 04:15:00;;;;;;;1.0;1.0;;;;;;;15.5;100.0;101580;;;;
2022/05/26 04:16:00;;;;;;;1.0;1.0;;;;;;;15.4;100.0;101580;;;;
2022/05/26 04:17:00;;;;;;;1.0;1.0;;;;;;;15.4;100.0;101580;;;;
2022/05/26 04:18:00;;;;;;;1.0;1.0;;;;;;;15.5;100.0;101580;;;;
2022/05/26 04:19:00;;;;;;;0.4;0.4;;;;;;;15.5;100.0;101580;;;;
2022/05/26 04:20:00;;;;;;;0.4;0.4;;;;;;;15.5;100.0;101580;;;;
2022/05/26 04:21:04;;;;;;;0.4;0.4;;;;;;;15.5;100.0;101580;;;;
2022/05/26 04:23:00;;;;;;;0.4;0.4;;;;;;;15.6;100.0;101580;;;;
2022/05/26 04:24:00;;;;;;;0.4;0.4;;;;;;;15.4;100.0;101580;;;;
2022/05/26 04:25:00;;;;;;;0.4;0.4;;;;;;;15.4;100.0;101580;;;;
2022/05/26 04:26:00;;;;;;;0.4;0.4;;;;;;;15.5;100.0;101580;;;;
2022/05/26 04:27:00;;;;;;;0.4;0.4;;;;;;;15.5;100.0;101580;;;;
2022/05/26 04:28:00;;;;;;;0.4;0.4;;;;;;;15.3;100.0;101590;;;;
2022/05/26 04:29:13;;;;;;;0.4;0.4;;;;;;;15.3;100.0;101590;;;;
2022/05/26 04:30:01;;;;;;;0.4;0.4;;;;;;;15.4;100.0;101590;;;;
2022/05/26 04:31:00;;;;;;;0.4;0.4;;;;;;;15.4;100.0;101590;;;;
2022/05/26 04:32:00;;;;;;;0.4;0.4;;;;;;;15.4;100.0;101590;;;;
2022/05/26 04:33:00;;;;;;;0.4;0.4;;;;;;;15.4;100.0;101590;;;;
2022/05/26 04:34:00;;;;;;;0.4;0.4;;;;;;;15.5;100.0;101600;;;;
2022/05/26 04:35:00;;;;;;;0.4;0.4;;;;;;;15.5;100.0;101600;;;;
2022/05/26 04:36:02;;;;;;;0.4;0.4;;;;;;;15.5;100.0;101600;;;;
2022/05/26 04:37:00;;;;;;;0.4;0.4;;;;;;;15.5;100.0;101600;;;;
2022/05/26 04:38:00;;;;;;;0.4;0.4;;;;;;;15.6;100.0;101590;;;;
2022/05/26 04:39:00;;;;;;;0.6;0.6;;;;;;;15.6;100.0;101590;;;;
2022/05/26 04:40:00;;;;;;;0.6;0.6;;;;;;;15.5;100.0;101590;;;;
2022/05/26 04:41:02;;;;;;;0.6;0.6;;;;;;;15.5;100.0;101590;;;;
2022/05/26 04:42:01;;;;;;;0.6;0.6;;;;;;;15.5;100.0;101590;;;;
2022/05/26 04:43:00;;;;;;;0.6;0.6;;;;;;;15.5;100.0;101590;;;;
2022/05/26 04:44:00;;;;;;;0.6;0.6;;;;;;;15.5;100.0;101590;;;;
2022/05/26 04:45:00;;;;;;;0.6;0.6;;;;;;;15.5;100.0;101590;;;;
2022/05/26 04:46:02;;;;;;;0.6;0.6;;;;;;;15.6;100.0;101600;;;;
2022/05/26 04:47:00;;;;;;;0.6;0.6;;;;;;;15.6;100.0;101600;;;;
2022/05/26 04:48:00;;;;;;;0.6;0.6;;;;;;;15.6;100.0;101600;;;;
2022/05/26 04:49:00;;;;;;;0.6;0.6;;;;;;;15.6;100.0;101600;;;;
2022/05/26 04:50:02;;;;;;;0.6;0.6;;;;;;;15.5;100.0;101600;;;;
2022/05/26 04:51:01;;;;;;;0.6;0.6;;;;;;;15.5;100.0;101600;;;;
2022/05/26 04:52:00;;;;;;;0.6;0.6;;;;;;;15.6;100.0;101610;;;;
2022/05/26 04:53:00;;;;;;;0.6;0.6;;;;;;;15.6;100.0;101610;;;;
2022/05/26 04:54:00;;;;;;;0.6;0.6;;;;;;;15.6;100.0;101620;;;;
2022/05/26 04:55:00;;;;;;;0.6;0.6;;;;;;;15.6;100.0;101620;;;;
2022/05/26 04:56:00;;;;;;;0.6;0.6;;;;;;;15.6;100.0;101620;;;;
2022/05/26 04:57:00;;;;;;;0.6;0.6;;;;;;;15.6;100.0;101620;;;;
2022/05/26 04:58:00;;;;;;;2.2;1.2;;;;;;;15.7;100.0;101630;;;;
2022/05/26 04:59:00;;;;;;;2.2;1.2;;;;;;;15.7;100.0;101630;;;;
2022/05/26 05:00:00;;;;;;;2.2;1.2;;;;;;;15.6;100.0;101630;;;;
2022/05/26 05:01:00;;;;;;;2.2;1.2;;;;;;;15.6;100.0;101630;;;;
2022/05/26 05:02:00;;;;;;;2.2;1.2;;;;;;;15.6;100.0;101630;;;;
2022/05/26 05:03:00;;;;;;;2.2;1.2;;;;;;;15.6;100.0;101630;;;;
2022/05/26 05:04:00;;;;;;;2.2;1.2;;;;;;;15.7;100.0;101640;;;;
2022/05/26 05:05:00;;;;;;;2.2;1.2;;;;;;;15.7;100.0;101640;;;;
2022/05/26 05:06:00;;;;;;;2.2;1.2;;;;;;;15.7;100.0;101640;;;;
2022/05/26 05:07:00;;;;;;;2.2;1.2;;;;;;;15.7;100.0;101640;;;;
2022/05/26 05:08:00;;;;;;;2.2;1.2;;;;;;;15.7;100.0;101640;;;;
2022/05/26 05:09:00;;;;;;;2.2;1.2;;;;;;;15.7;100.0;101640;;;;
2022/05/26 05:10:00;;;;;;;2.2;1.2;;;;;;;15.7;100.0;101630;;;;
2022/05/26 05:11:00;;;;;;;2.2;1.2;;;;;;;15.7;100.0;101630;;;;
2022/05/26 05:12:00;;;;;;;2.2;1.2;;;;;;;15.8;100.0;101640;;;;
2022/05/26 05:13:00;;;;;;;2.2;1.2;;;;;;;15.8;100.0;101640;;;;
2022/05/26 05:14:02;;;;;;;2.2;1.2;;;;;;;15.8;100.0;101640;;;;
2022/05/26 05:15:01;;;;;;;2.2;1.2;;;;;;;15.8;100.0;101640;;;;
2022/05/26 05:16:02;;;;;;;2.2;1.2;;;;;;;15.8;100.0;101640;;;;
2022/05/26 05:17:00;;;;;;;2.2;1.2;;;;;;;15.8;100.0;101640;;;;
2022/05/26 05:18:00;;;;;;;0.8;0.8;;;;;;;15.8;100.0;101650;;;;
2022/05/26 05:19:00;;;;;;;0.8;0.8;;;;;;;15.8;100.0;101650;;;;
2022/05/26 05:20:00;;;;;;;0.8;0.8;;;;;;;15.8;100.0;101660;;;;
2022/05/26 05:21:03;;;;;;;0.8;0.8;;;;;;;15.8;100.0;101660;;;;
2022/05/26 05:22:04;;;;;;;0.8;0.8;;;;;;;15.8;100.0;101650;;;;
2022/05/26 05:23:02;;;;;;;0.8;0.8;;;;;;;15.8;100.0;101650;;;;
2022/05/26 05:24:03;;;;;;;0.8;0.8;;;;;;;15.9;100.0;101650;;;;
2022/05/26 05:25:00;;;;;;;0.8;0.8;;;;;;;15.9;100.0;101650;;;;
2022/05/26 05:26:01;;;;;;;0.8;0.8;;;;;;;15.9;100.0;101660;;;;
2022/05/26 05:27:04;;;;;;;0.8;0.8;;;;;;;15.9;100.0;101660;;;;
2022/05/26 05:28:02;;;;;;;0.8;0.8;;;;;;;15.9;100.0;101650;;;;
2022/05/26 05:29:08;;;;;;;0.8;0.8;;;;;;;15.9;100.0;101650;;;;
2022/05/26 05:30:01;;;;;;;0.8;0.8;;;;;;;15.9;100.0;101660;;;;
2022/05/26 05:31:03;;;;;;;0.8;0.8;;;;;;;15.9;100.0;101660;;;;
2022/05/26 05:32:03;;;;;;;0.8;0.8;;;;;;;16.0;100.0;101660;;;;
2022/05/26 05:33:06;;;;;;;0.8;0.8;;;;;;;16.0;100.0;101660;;;;
2022/05/26 05:34:05;;;;;;;0.8;0.8;;;;;;;15.8;100.0;101660;;;;
2022/05/26 05:35:10;;;;;;;0.8;0.8;;;;;;;15.8;100.0;101660;;;;
2022/05/26 05:36:09;;;;;;;0.8;0.8;;;;;;;16.0;100.0;101660;;;;
2022/05/26 05:37:00;;;;;;;0.8;0.8;;;;;;;16.0;100.0;101660;;;;
2022/05/26 05:38:00;;;;;;;0.5;0.5;;;;;;;16.0;100.0;101670;;;;
2022/05/26 05:39:00;;;;;;;0.5;0.5;;;;;;;16.0;100.0;101670;;;;
2022/05/26 05:40:00;;;;;;;0.5;0.5;;;;;;;16.2;100.0;101660;;;;
2022/05/26 05:41:00;;;;;;;0.5;0.5;;;;;;;16.2;100.0;101660;;;;
2022/05/26 05:42:00;;;;;;;0.5;0.5;;;;;;;16.1;100.0;101670;;;;
2022/05/26 05:43:00;;;;;;;0.5;0.5;;;;;;;16.1;100.0;101670;;;;
2022/05/26 05:44:00;;;;;;;0.5;0.5;;;;;;;16.1;100.0;101670;;;;
2022/05/26 05:45:00;;;;;;;0.5;0.5;;;;;;;16.1;100.0;101670;;;;
2022/05/26 05:46:01;;;;;;;0.5;0.5;;;;;;;16.1;100.0;101670;;;;
2022/05/26 05:47:01;;;;;;;0.5;0.5;;;;;;;16.1;100.0;101670;;;;
2022/05/26 05:48:00;;;;;;;0.5;0.5;;;;;;;16.2;100.0;101670;;;;
2022/05/26 05:49:02;;;;;;;0.5;0.5;;;;;;;16.2;100.0;101670;;;;
2022/05/26 05:50:01;;;;;;;0.5;0.5;;;;;;;16.2;100.0;101670;;;;
2022/05/26 05:51:01;;;;;;;0.5;0.5;;;;;;;16.2;100.0;101670;;;;
2022/05/26 05:52:10;;;;;;;0.5;0.5;;;;;;;16.2;100.0;101670;;;;
2022/05/26 05:53:00;;;;;;;0.5;0.5;;;;;;;16.2;100.0;101670;;;;
2022/05/26 05:54:00;;;;;;;0.5;0.5;;;;;;;16.3;100.0;101670;;;;
2022/05/26 05:55:00;;;;;;;0.5;0.5;;;;;;;16.3;100.0;101670;;;;
2022/05/26 05:56:00;;;;;;;0.5;0.5;;;;;;;16.3;100.0;101680;;;;
2022/05/26 05:57:00;;;;;;;0.5;0.5;;;;;;;16.3;100.0;101680;;;;
2022/05/26 05:58:00;;;;;;;1.6;1.5;;;;;;;16.2;100.0;101680;;;;
2022/05/26 05:59:00;;;;;;;1.6;1.5;;;;;;;16.2;100.0;101680;;;;
2022/05/26 06:00:00;;;;;;;1.6;1.5;;;;;;;16.1;100.0;101680;;;;
2022/05/26 06:01:00;;;;;;;1.6;1.5;;;;;;;16.1;100.0;101680;;;;
2022/05/26 06:02:10;;;;;;;1.6;1.5;;;;;;;16.3;100.0;101680;;;;
2022/05/26 06:03:00;;;;;;;1.6;1.5;;;;;;;16.3;100.0;101680;;;;
2022/05/26 06:04:00;;;;;;;1.6;1.5;;;;;;;16.4;100.0;101680;;;;
2022/05/26 06:05:00;;;;;;;1.6;1.5;;;;;;;16.4;100.0;101680;;;;
2022/05/26 06:06:01;;;;;;;1.6;1.5;;;;;;;16.3;100.0;101680;;;;
2022/05/26 06:07:00;;;;;;;1.6;1.5;;;;;;;16.3;100.0;101680;;;;
2022/05/26 06:08:00;;;;;;;1.6;1.5;;;;;;;16.4;100.0;101680;;;;
2022/05/26 06:09:00;;;;;;;1.6;1.5;;;;;;;16.4;100.0;101680;;;;
2022/05/26 06:10:00;;;;;;;1.6;1.5;;;;;;;16.3;100.0;101690;;;;
2022/05/26 06:11:00;;;;;;;1.6;1.5;;;;;;;16.3;100.0;101690;;;;
2022/05/26 06:12:00;;;;;;;1.6;1.5;;;;;;;16.3;100.0;101680;;;;
2022/05/26 06:13:00;;;;;;;1.6;1.5;;;;;;;16.3;100.0;101680;;;;
2022/05/26 06:14:02;;;;;;;1.6;1.5;;;;;;;16.4;100.0;101690;;;;
2022/05/26 06:15:00;;;;;;;1.6;1.5;;;;;;;16.4;100.0;101690;;;;
2022/05/26 06:16:00;;;;;;;1.6;1.5;;;;;;;16.5;100.0;101690;;;;
2022/05/26 06:17:00;;;;;;;1.6;1.5;;;;;;;16.5;100.0;101690;;;;
2022/05/26 06:18:00;;;;;;;8.1;0.9;;;;;;;16.6;100.0;101690;;;;
2022/05/26 06:19:00;;;;;;;8.1;0.9;;;;;;;16.6;100.0;101690;;;;
2022/05/26 06:20:00;;;;;;;8.1;0.9;;;;;;;16.5;100.0;101690;;;;
2022/05/26 06:21:01;;;;;;;8.1;0.9;;;;;;;16.5;100.0;101690;;;;
2022/05/26 06:22:05;;;;;;;8.1;0.9;;;;;;;16.6;100.0;101690;;;;
2022/05/26 06:23:00;;;;;;;8.1;0.9;;;;;;;16.6;100.0;101690;;;;
2022/05/26 06:24:00;;;;;;;8.1;0.9;;;;;;;16.7;100.0;101700;;;;
2022/05/26 06:25:00;;;;;;;8.1;0.9;;;;;;;16.7;100.0;101700;;;;
2022/05/26 06:26:00;;;;;;;8.1;0.9;;;;;;;16.8;100.0;101700;;;;
2022/05/26 06:27:00;;;;;;;8.1;0.9;;;;;;;16.8;100.0;101700;;;;
2022/05/26 06:30:00;;;;;;;8.1;0.9;;;;;;;16.9;100.0;101710;;;;
2022/05/26 06:31:00;;;;;;;8.1;0.9;;;;;;;16.9;100.0;101710;;;;
2022/05/26 06:38:01;;;;;;;0.5;0.5;;;;;;;16.7;100.0;101720;;;;
2022/05/26 06:39:00;;;;;;;0.5;0.5;;;;;;;16.7;100.0;101720;;;;